sensor_id;sensor_type;location;lat;lon;timestamp;pressure;altitude;pressure_sealevel;temperature;humidity
59443;BME280;45247;47.466;19.004;2022-09-09T00:02:02;99590.06;;;16.73;100.00
59443;BME280;45247;47.466;19.004;2022-09-09T00:04:33;99586.25;;;16.66;100.00
59443;BME280;45247;47.466;19.004;2022-09-09T00:07:07;99596.47;;;16.61;100.00
59443;BME280;45247;47.466;19.004;2022-09-09T00:09:45;99590.72;;;16.56;100.00
59443;BME280;45247;47.466;19.004;2022-09-09T00:12:19;99587.63;;;16.50;100.00
59443;BME280;45247;47.466;19.004;2022-09-09T00:14:55;99586.78;;;16.50;100.00
59443;BME280;45247;47.466;19.004;2022-09-09T00:17:32;99597.00;;;16.45;100.00
59443;BME280;45247;47.466;19.004;2022-09-09T00:20:11;99599.94;;;16.42;100.00
59443;BME280;45247;47.466;19.004;2022-09-09T00:22:45;99606.34;;;16.30;100.00
59443;BME280;45247;47.466;19.004;2022-09-09T00:25:20;99595.25;;;16.24;100.00
59443;BME280;45247;47.466;19.004;2022-09-09T00:27:51;99601.00;;;16.20;100.00
59443;BME280;45247;47.466;19.004;2022-09-09T00:30:20;99597.91;;;16.15;100.00
59443;BME280;45247;47.466;19.004;2022-09-09T00:32:54;99595.94;;;16.17;100.00
59443;BME280;45247;47.466;19.004;2022-09-09T00:35:27;99604.63;;;16.19;100.00
59443;BME280;45247;47.466;19.004;2022-09-09T00:38:01;99605.34;;;16.21;100.00
59443;BME280;45247;47.466;19.004;2022-09-09T00:40:34;99614.16;;;16.21;100.00
59443;BME280;45247;47.466;19.004;2022-09-09T00:43:15;99611.50;;;16.21;100.00
59443;BME280;45247;47.466;19.004;2022-09-09T00:46:05;99609.91;;;16.09;100.00
59443;BME280;45247;47.466;19.004;2022-09-09T00:48:46;99608.47;;;16.05;100.00
59443;BME280;45247;47.466;19.004;2022-09-09T00:51:27;99608.63;;;16.03;100.00
59443;BME280;45247;47.466;19.004;2022-09-09T00:54:13;99607.91;;;16.01;100.00
59443;BME280;45247;47.466;19.004;2022-09-09T00:56:49;99611.53;;;16.00;100.00
59443;BME280;45247;47.466;19.004;2022-09-09T00:59:27;99608.63;;;16.03;100.00
59443;BME280;45247;47.466;19.004;2022-09-09T01:01:59;99615.63;;;16.05;100.00
59443;BME280;45247;47.466;19.004;2022-09-09T01:04:34;99621.69;;;16.07;100.00
59443;BME280;45247;47.466;19.004;2022-09-09T01:07:14;99618.28;;;16.05;100.00
59443;BME280;45247;47.466;19.004;2022-09-09T01:10:03;99629.91;;;16.03;100.00
59443;BME280;45247;47.466;19.004;2022-09-09T01:12:39;99628.50;;;15.99;100.00
59443;BME280;45247;47.466;19.004;2022-09-09T01:15:12;99635.38;;;16.02;100.00
59443;BME280;45247;47.466;19.004;2022-09-09T01:17:52;99633.38;;;15.94;100.00
59443;BME280;45247;47.466;19.004;2022-09-09T01:20:25;99629.47;;;15.98;100.00
59443;BME280;45247;47.466;19.004;2022-09-09T01:23:07;99628.63;;;15.98;100.00
59443;BME280;45247;47.466;19.004;2022-09-09T01:26:07;99634.50;;;16.01;100.00
59443;BME280;45247;47.466;19.004;2022-09-09T01:28:38;99638.25;;;15.89;100.00
59443;BME280;45247;47.466;19.004;2022-09-09T01:31:09;99641.69;;;15.80;100.00
59443;BME280;45247;47.466;19.004;2022-09-09T01:33:39;99628.47;;;15.69;100.00
59443;BME280;45247;47.466;19.004;2022-09-09T01:36:10;99646.28;;;15.78;100.00
59443;BME280;45247;47.466;19.004;2022-09-09T01:38:40;99624.31;;;15.76;100.00
59443;BME280;45247;47.466;19.004;2022-09-09T01:41:09;99624.19;;;15.77;100.00
59443;BME280;45247;47.466;19.004;2022-09-09T01:43:37;99626.09;;;15.75;100.00
59443;BME280;45247;47.466;19.004;2022-09-09T01:46:06;99629.88;;;15.73;100.00
59443;BME280;45247;47.466;19.004;2022-09-09T01:48:34;99631.81;;;15.71;100.00
59443;BME280;45247;47.466;19.004;2022-09-09T01:51:03;99641.38;;;15.73;100.00
59443;BME280;45247;47.466;19.004;2022-09-09T01:53:31;99641.38;;;15.73;100.00
59443;BME280;45247;47.466;19.004;2022-09-09T01:56:05;99645.25;;;15.69;100.00
59443;BME280;45247;47.466;19.004;2022-09-09T01:58:47;99641.22;;;15.75;100.00
59443;BME280;45247;47.466;19.004;2022-09-09T02:01:27;99636.63;;;15.77;100.00
59443;BME280;45247;47.466;19.004;2022-09-09T02:04:03;99619.00;;;15.76;100.00
59443;BME280;45247;47.466;19.004;2022-09-09T02:06:38;99613.53;;;15.77;100.00
59443;BME280;45247;47.466;19.004;2022-09-09T02:09:10;99606.66;;;15.75;100.00
59443;BME280;45247;47.466;19.004;2022-09-09T02:11:40;99613.94;;;15.73;100.00
59443;BME280;45247;47.466;19.004;2022-09-09T02:14:15;99622.16;;;15.70;100.00
59443;BME280;45247;47.466;19.004;2022-09-09T02:16:49;99615.03;;;15.70;100.00
59443;BME280;45247;47.466;19.004;2022-09-09T02:19:22;99619.50;;;15.70;100.00
59443;BME280;45247;47.466;19.004;2022-09-09T02:21:55;99620.09;;;15.73;100.00
59443;BME280;45247;47.466;19.004;2022-09-09T02:24:25;99623.16;;;15.69;100.00
59443;BME280;45247;47.466;19.004;2022-09-09T02:26:55;99638.84;;;15.72;100.00
59443;BME280;45247;47.466;19.004;2022-09-09T02:29:29;99632.81;;;15.70;100.00
59443;BME280;45247;47.466;19.004;2022-09-09T02:32:01;99627.03;;;15.65;100.00
59443;BME280;45247;47.466;19.004;2022-09-09T02:34:31;99628.94;;;15.63;100.00
59443;BME280;45247;47.466;19.004;2022-09-09T02:37:03;99629.47;;;15.57;100.00
59443;BME280;45247;47.466;19.004;2022-09-09T02:39:32;99618.25;;;15.53;100.00
59443;BME280;45247;47.466;19.004;2022-09-09T02:42:00;99627.34;;;15.50;100.00
59443;BME280;45247;47.466;19.004;2022-09-09T02:44:31;99626.59;;;15.48;100.00
59443;BME280;45247;47.466;19.004;2022-09-09T02:47:13;99634.34;;;15.51;100.00
59443;BME280;45247;47.466;19.004;2022-09-09T02:49:54;99634.78;;;15.57;100.00
59443;BME280;45247;47.466;19.004;2022-09-09T02:52:30;99639.34;;;15.66;100.00
59443;BME280;45247;47.466;19.004;2022-09-09T02:55:05;99638.50;;;15.65;100.00
59443;BME280;45247;47.466;19.004;2022-09-09T02:57:36;99650.22;;;15.63;100.00
59443;BME280;45247;47.466;19.004;2022-09-09T03:00:07;99652.16;;;15.61;100.00
59443;BME280;45247;47.466;19.004;2022-09-09T03:02:35;99655.09;;;15.58;100.00
59443;BME280;45247;47.466;19.004;2022-09-09T03:05:05;99656.06;;;15.57;100.00
59443;BME280;45247;47.466;19.004;2022-09-09T03:07:33;99659.69;;;15.56;100.00
59443;BME280;45247;47.466;19.004;2022-09-09T03:10:02;99658.38;;;15.50;100.00
59443;BME280;45247;47.466;19.004;2022-09-09T03:12:30;99654.88;;;15.49;100.00
59443;BME280;45247;47.466;19.004;2022-09-09T03:15:00;99656.50;;;15.41;100.00
59443;BME280;45247;47.466;19.004;2022-09-09T03:17:29;99665.31;;;15.41;100.00
59443;BME280;45247;47.466;19.004;2022-09-09T03:19:58;99665.13;;;15.33;100.00
59443;BME280;45247;47.466;19.004;2022-09-09T03:22:26;99656.66;;;15.28;100.00
59443;BME280;45247;47.466;19.004;2022-09-09T03:24:54;99676.25;;;15.27;100.00
59443;BME280;45247;47.466;19.004;2022-09-09T03:27:22;99669.75;;;15.20;100.00
59443;BME280;45247;47.466;19.004;2022-09-09T03:29:50;99671.19;;;15.24;100.00
59443;BME280;45247;47.466;19.004;2022-09-09T03:32:19;99662.50;;;15.22;100.00
59443;BME280;45247;47.466;19.004;2022-09-09T03:34:50;99654.06;;;15.17;100.00
59443;BME280;45247;47.466;19.004;2022-09-09T03:37:19;99667.38;;;15.06;100.00
59443;BME280;45247;47.466;19.004;2022-09-09T03:39:47;99667.16;;;14.97;100.00
59443;BME280;45247;47.466;19.004;2022-09-09T03:42:15;99666.84;;;14.91;100.00
59443;BME280;45247;47.466;19.004;2022-09-09T03:44:45;99662.75;;;14.87;100.00
59443;BME280;45247;47.466;19.004;2022-09-09T03:47:17;99663.19;;;14.92;100.00
59443;BME280;45247;47.466;19.004;2022-09-09T03:49:46;99672.38;;;14.88;100.00
59443;BME280;45247;47.466;19.004;2022-09-09T03:52:16;99677.25;;;14.83;100.00
59443;BME280;45247;47.466;19.004;2022-09-09T03:54:49;99681.94;;;14.79;100.00
59443;BME280;45247;47.466;19.004;2022-09-09T03:57:17;99674.72;;;14.70;100.00
59443;BME280;45247;47.466;19.004;2022-09-09T03:59:46;99678.69;;;14.64;100.00
59443;BME280;45247;47.466;19.004;2022-09-09T04:02:14;99679.81;;;14.62;100.00
59443;BME280;45247;47.466;19.004;2022-09-09T04:04:42;99676.41;;;14.60;100.00
59443;BME280;45247;47.466;19.004;2022-09-09T04:07:10;99688.47;;;14.64;100.00
59443;BME280;45247;47.466;19.004;2022-09-09T04:09:40;99677.84;;;14.64;100.00
59443;BME280;45247;47.466;19.004;2022-09-09T04:12:09;99662.41;;;14.58;100.00
59443;BME280;45247;47.466;19.004;2022-09-09T04:14:39;99673.50;;;14.63;100.00
59443;BME280;45247;47.466;19.004;2022-09-09T04:17:08;99669.78;;;14.65;100.00
59443;BME280;45247;47.466;19.004;2022-09-09T04:19:36;99675.09;;;14.65;100.00
59443;BME280;45247;47.466;19.004;2022-09-09T04:22:05;99674.50;;;14.62;100.00
59443;BME280;45247;47.466;19.004;2022-09-09T04:24:33;99678.13;;;14.61;100.00
59443;BME280;45247;47.466;19.004;2022-09-09T04:27:03;99674.50;;;14.62;100.00
59443;BME280;45247;47.466;19.004;2022-09-09T04:29:31;99668.19;;;14.63;100.00
59443;BME280;45247;47.466;19.004;2022-09-09T04:32:00;99678.97;;;14.61;100.00
59443;BME280;45247;47.466;19.004;2022-09-09T04:34:28;99677.00;;;14.63;100.00
59443;BME280;45247;47.466;19.004;2022-09-09T04:36:57;99679.56;;;14.65;100.00
59443;BME280;45247;47.466;19.004;2022-09-09T04:39:27;99668.06;;;14.64;100.00
59443;BME280;45247;47.466;19.004;2022-09-09T04:41:56;99666.28;;;14.65;100.00
59443;BME280;45247;47.466;19.004;2022-09-09T04:44:25;99669.88;;;14.75;100.00
59443;BME280;45247;47.466;19.004;2022-09-09T04:46:54;99662.13;;;14.83;100.00
59443;BME280;45247;47.466;19.004;2022-09-09T04:49:22;99660.78;;;14.89;100.00
59443;BME280;45247;47.466;19.004;2022-09-09T04:51:51;99656.91;;;14.93;100.00
59443;BME280;45247;47.466;19.004;2022-09-09T04:54:19;99661.75;;;14.99;100.00
59443;BME280;45247;47.466;19.004;2022-09-09T04:56:49;99672.09;;;15.02;100.00
59443;BME280;45247;47.466;19.004;2022-09-09T04:59:18;99665.47;;;15.08;100.00
59443;BME280;45247;47.466;19.004;2022-09-09T05:01:48;99674.13;;;15.10;100.00
59443;BME280;45247;47.466;19.004;2022-09-09T05:04:16;99681.72;;;15.14;100.00
59443;BME280;45247;47.466;19.004;2022-09-09T05:06:46;99678.44;;;15.22;100.00
59443;BME280;45247;47.466;19.004;2022-09-09T05:09:15;99677.94;;;15.28;100.00
59443;BME280;45247;47.466;19.004;2022-09-09T05:11:43;99673.47;;;15.28;100.00
59443;BME280;45247;47.466;19.004;2022-09-09T05:14:11;99675.50;;;15.36;100.00
59443;BME280;45247;47.466;19.004;2022-09-09T05:16:39;99679.34;;;15.43;100.00
59443;BME280;45247;47.466;19.004;2022-09-09T05:19:09;99682.06;;;15.53;100.00
59443;BME280;45247;47.466;19.004;2022-09-09T05:21:37;99682.66;;;15.68;100.00
59443;BME280;45247;47.466;19.004;2022-09-09T05:24:05;99684.25;;;15.80;100.00
59443;BME280;45247;47.466;19.004;2022-09-09T05:26:33;99676.66;;;15.96;100.00
59443;BME280;45247;47.466;19.004;2022-09-09T05:29:01;99676.78;;;16.16;100.00
59443;BME280;45247;47.466;19.004;2022-09-09T05:31:30;99682.00;;;16.58;100.00
59443;BME280;45247;47.466;19.004;2022-09-09T05:33:59;99682.81;;;16.79;100.00
59443;BME280;45247;47.466;19.004;2022-09-09T05:36:29;99691.50;;;16.91;100.00
59443;BME280;45247;47.466;19.004;2022-09-09T05:38:57;99689.00;;;16.99;100.00
59443;BME280;45247;47.466;19.004;2022-09-09T05:41:25;99700.56;;;17.09;100.00
59443;BME280;45247;47.466;19.004;2022-09-09T05:43:55;99694.97;;;17.32;100.00
59443;BME280;45247;47.466;19.004;2022-09-09T05:46:25;99685.41;;;17.58;100.00
59443;BME280;45247;47.466;19.004;2022-09-09T05:48:53;99692.72;;;17.85;100.00
59443;BME280;45247;47.466;19.004;2022-09-09T05:51:24;99684.97;;;17.92;100.00
59443;BME280;45247;47.466;19.004;2022-09-09T05:53:54;99689.88;;;17.96;100.00
59443;BME280;45247;47.466;19.004;2022-09-09T05:56:26;99692.53;;;18.16;100.00
59443;BME280;45247;47.466;19.004;2022-09-09T05:58:55;99693.16;;;18.37;100.00
59443;BME280;45247;47.466;19.004;2022-09-09T06:01:25;99691.69;;;18.52;100.00
59443;BME280;45247;47.466;19.004;2022-09-09T06:03:54;99690.19;;;18.77;100.00
59443;BME280;45247;47.466;19.004;2022-09-09T06:06:25;99691.88;;;19.42;100.00
59443;BME280;45247;47.466;19.004;2022-09-09T06:08:56;99694.84;;;20.18;100.00
59443;BME280;45247;47.466;19.004;2022-09-09T06:11:26;99688.09;;;20.66;100.00
59443;BME280;45247;47.466;19.004;2022-09-09T06:13:54;99688.72;;;21.11;100.00
59443;BME280;45247;47.466;19.004;2022-09-09T06:16:26;99682.78;;;21.33;100.00
59443;BME280;45247;47.466;19.004;2022-09-09T06:18:56;99683.88;;;21.14;100.00
59443;BME280;45247;47.466;19.004;2022-09-09T06:21:25;99689.72;;;21.01;100.00
59443;BME280;45247;47.466;19.004;2022-09-09T06:23:55;99692.09;;;21.13;100.00
59443;BME280;45247;47.466;19.004;2022-09-09T06:26:28;99692.38;;;21.68;100.00
59443;BME280;45247;47.466;19.004;2022-09-09T06:28:58;99693.69;;;22.21;100.00
59443;BME280;45247;47.466;19.004;2022-09-09T06:31:28;99693.50;;;22.31;100.00
59443;BME280;45247;47.466;19.004;2022-09-09T06:33:58;99695.06;;;22.65;100.00
59443;BME280;45247;47.466;19.004;2022-09-09T06:36:28;99686.06;;;22.49;100.00
59443;BME280;45247;47.466;19.004;2022-09-09T06:38:59;99697.06;;;22.23;100.00
59443;BME280;45247;47.466;19.004;2022-09-09T06:41:28;99688.53;;;22.59;100.00
59443;BME280;45247;47.466;19.004;2022-09-09T06:43:57;99687.38;;;22.54;100.00
59443;BME280;45247;47.466;19.004;2022-09-09T06:46:26;99682.72;;;22.39;100.00
59443;BME280;45247;47.466;19.004;2022-09-09T06:48:57;99688.06;;;22.47;100.00
59443;BME280;45247;47.466;19.004;2022-09-09T06:51:26;99691.72;;;22.63;100.00
59443;BME280;45247;47.466;19.004;2022-09-09T06:53:56;99687.88;;;22.57;100.00
59443;BME280;45247;47.466;19.004;2022-09-09T06:56:28;99686.13;;;22.17;100.00
59443;BME280;45247;47.466;19.004;2022-09-09T06:59:01;99699.41;;;21.86;100.00
59443;BME280;45247;47.466;19.004;2022-09-09T07:01:32;99696.56;;;21.79;100.00
59443;BME280;45247;47.466;19.004;2022-09-09T07:04:01;99697.22;;;22.06;100.00
59443;BME280;45247;47.466;19.004;2022-09-09T07:06:32;99699.75;;;21.83;100.00
59443;BME280;45247;47.466;19.004;2022-09-09T07:09:03;99708.50;;;21.85;100.00
59443;BME280;45247;47.466;19.004;2022-09-09T07:11:36;99707.97;;;21.65;100.00
59443;BME280;45247;47.466;19.004;2022-09-09T07:14:05;99711.34;;;21.59;100.00
59443;BME280;45247;47.466;19.004;2022-09-09T07:16:34;99712.34;;;21.82;100.00
59443;BME280;45247;47.466;19.004;2022-09-09T07:19:04;99713.16;;;21.99;100.00
59443;BME280;45247;47.466;19.004;2022-09-09T07:21:32;99714.66;;;22.34;100.00
59443;BME280;45247;47.466;19.004;2022-09-09T07:24:01;99705.22;;;22.38;100.00
59443;BME280;45247;47.466;19.004;2022-09-09T07:26:36;99709.03;;;22.60;100.00
59443;BME280;45247;47.466;19.004;2022-09-09T07:29:04;99709.19;;;22.67;100.00
59443;BME280;45247;47.466;19.004;2022-09-09T07:31:34;99715.50;;;22.90;100.00
59443;BME280;45247;47.466;19.004;2022-09-09T07:34:04;99713.03;;;23.12;100.00
59443;BME280;45247;47.466;19.004;2022-09-09T07:36:34;99713.09;;;23.35;100.00
59443;BME280;45247;47.466;19.004;2022-09-09T07:39:04;99709.47;;;23.42;100.00
59443;BME280;45247;47.466;19.004;2022-09-09T07:41:35;99717.81;;;23.56;100.00
59443;BME280;45247;47.466;19.004;2022-09-09T07:44:05;99723.28;;;23.70;100.00
59443;BME280;45247;47.466;19.004;2022-09-09T07:46:34;99712.25;;;23.57;100.00
59443;BME280;45247;47.466;19.004;2022-09-09T07:49:03;99713.22;;;23.64;100.00
59443;BME280;45247;47.466;19.004;2022-09-09T07:51:33;99715.63;;;23.28;100.00
59443;BME280;45247;47.466;19.004;2022-09-09T07:54:09;99717.94;;;23.39;100.00
59443;BME280;45247;47.466;19.004;2022-09-09T07:56:40;99715.69;;;23.20;100.00
59443;BME280;45247;47.466;19.004;2022-09-09T07:59:09;99722.75;;;23.21;100.00
59443;BME280;45247;47.466;19.004;2022-09-09T08:01:39;99721.53;;;23.01;100.00
59443;BME280;45247;47.466;19.004;2022-09-09T08:04:09;99716.97;;;23.32;100.00
59443;BME280;45247;47.466;19.004;2022-09-09T08:06:43;99718.41;;;23.43;100.00
59443;BME280;45247;47.466;19.004;2022-09-09T08:09:13;99720.34;;;23.57;100.00
59443;BME280;45247;47.466;19.004;2022-09-09T08:11:43;99714.88;;;23.42;100.00
59443;BME280;45247;47.466;19.004;2022-09-09T08:14:12;99710.34;;;23.43;100.00
59443;BME280;45247;47.466;19.004;2022-09-09T08:16:42;99710.59;;;23.56;100.00
59443;BME280;45247;47.466;19.004;2022-09-09T08:19:11;99719.50;;;23.57;100.00
59443;BME280;45247;47.466;19.004;2022-09-09T08:21:43;99714.75;;;23.59;100.00
59443;BME280;45247;47.466;19.004;2022-09-09T08:24:12;99715.34;;;23.77;100.00
59443;BME280;45247;47.466;19.004;2022-09-09T08:26:44;99707.91;;;23.79;100.00
59443;BME280;45247;47.466;19.004;2022-09-09T08:29:13;99710.25;;;23.82;100.00
59443;BME280;45247;47.466;19.004;2022-09-09T08:31:44;99705.78;;;23.89;100.00
59443;BME280;45247;47.466;19.004;2022-09-09T08:34:13;99710.53;;;24.02;100.00
59443;BME280;45247;47.466;19.004;2022-09-09T08:36:43;99709.94;;;23.77;100.00
59443;BME280;45247;47.466;19.004;2022-09-09T08:39:13;99709.16;;;23.91;100.00
59443;BME280;45247;47.466;19.004;2022-09-09T08:42:11;99711.44;;;23.80;100.00
59443;BME280;45247;47.466;19.004;2022-09-09T08:44:57;99708.13;;;23.92;100.00
59443;BME280;45247;47.466;19.004;2022-09-09T08:47:34;99710.09;;;23.98;100.00
59443;BME280;45247;47.466;19.004;2022-09-09T08:50:18;99717.91;;;24.08;100.00
59443;BME280;45247;47.466;19.004;2022-09-09T08:52:53;99713.84;;;24.27;100.00
59443;BME280;45247;47.466;19.004;2022-09-09T08:55:31;99712.72;;;24.36;100.00
59443;BME280;45247;47.466;19.004;2022-09-09T08:58:09;99719.31;;;24.42;100.00
59443;BME280;45247;47.466;19.004;2022-09-09T09:00:44;99710.75;;;24.38;100.00
59443;BME280;45247;47.466;19.004;2022-09-09T09:03:28;99714.91;;;24.41;100.00
59443;BME280;45247;47.466;19.004;2022-09-09T09:06:04;99719.91;;;24.29;100.00
59443;BME280;45247;47.466;19.004;2022-09-09T09:08:41;99706.50;;;24.21;100.00
59443;BME280;45247;47.466;19.004;2022-09-09T09:11:12;99704.59;;;24.44;100.00
59443;BME280;45247;47.466;19.004;2022-09-09T09:13:45;99708.50;;;24.57;100.00
59443;BME280;45247;47.466;19.004;2022-09-09T09:16:21;99711.47;;;24.62;100.00
59443;BME280;45247;47.466;19.004;2022-09-09T09:18:57;99708.69;;;24.70;100.00
59443;BME280;45247;47.466;19.004;2022-09-09T09:21:36;99698.75;;;24.56;100.00
59443;BME280;45247;47.466;19.004;2022-09-09T09:24:15;99703.94;;;24.72;100.00
59443;BME280;45247;47.466;19.004;2022-09-09T09:26:47;99691.59;;;24.63;100.00
59443;BME280;45247;47.466;19.004;2022-09-09T09:29:19;99680.88;;;24.84;100.00
59443;BME280;45247;47.466;19.004;2022-09-09T09:31:51;99676.09;;;24.86;100.00
59443;BME280;45247;47.466;19.004;2022-09-09T09:34:21;99677.84;;;25.09;100.00
59443;BME280;45247;47.466;19.004;2022-09-09T09:36:53;99671.78;;;25.07;100.00
59443;BME280;45247;47.466;19.004;2022-09-09T09:39:24;99670.13;;;25.06;100.00
59443;BME280;45247;47.466;19.004;2022-09-09T09:42:15;99679.63;;;25.02;100.00
59443;BME280;45247;47.466;19.004;2022-09-09T09:44:50;99667.91;;;24.94;100.00
59443;BME280;45247;47.466;19.004;2022-09-09T09:47:20;99683.66;;;25.27;100.00
59443;BME280;45247;47.466;19.004;2022-09-09T09:49:53;99688.53;;;25.38;100.00
59443;BME280;45247;47.466;19.004;2022-09-09T09:52:23;99689.22;;;25.40;97.82
59443;BME280;45247;47.466;19.004;2022-09-09T09:54:52;99684.97;;;25.31;94.55
59443;BME280;45247;47.466;19.004;2022-09-09T09:57:26;99694.72;;;25.32;88.09
59443;BME280;45247;47.466;19.004;2022-09-09T10:00:12;99696.91;;;25.43;83.19
59443;BME280;45247;47.466;19.004;2022-09-09T10:02:43;99691.91;;;25.40;64.58
59443;BME280;45247;47.466;19.004;2022-09-09T10:05:14;99684.56;;;25.34;64.01
59443;BME280;45247;47.466;19.004;2022-09-09T10:07:47;99684.09;;;25.31;58.06
59443;BME280;45247;47.466;19.004;2022-09-09T10:10:38;99683.22;;;25.23;63.05
59443;BME280;45247;47.466;19.004;2022-09-09T10:13:18;99681.13;;;25.26;57.51
59443;BME280;45247;47.466;19.004;2022-09-09T10:16:01;99683.69;;;25.48;62.16
59443;BME280;45247;47.466;19.004;2022-09-09T10:18:42;99676.88;;;25.53;56.59
59443;BME280;45247;47.466;19.004;2022-09-09T10:21:23;99670.41;;;25.75;53.71
59443;BME280;45247;47.466;19.004;2022-09-09T10:24:13;99677.22;;;25.92;57.94
59443;BME280;45247;47.466;19.004;2022-09-09T10:26:51;99675.28;;;25.86;55.71
59443;BME280;45247;47.466;19.004;2022-09-09T10:29:33;99666.13;;;26.09;55.59
59443;BME280;45247;47.466;19.004;2022-09-09T10:32:21;99672.47;;;26.29;60.65
59443;BME280;45247;47.466;19.004;2022-09-09T10:35:03;99670.81;;;26.28;54.33
59443;BME280;45247;47.466;19.004;2022-09-09T10:37:44;99676.28;;;26.41;53.42
59443;BME280;45247;47.466;19.004;2022-09-09T10:40:25;99664.31;;;26.51;53.21
59443;BME280;45247;47.466;19.004;2022-09-09T10:43:04;99672.06;;;26.26;51.23
59443;BME280;45247;47.466;19.004;2022-09-09T10:45:44;99665.00;;;26.31;50.88
59443;BME280;45247;47.466;19.004;2022-09-09T10:48:36;99671.25;;;26.04;51.63
59443;BME280;45247;47.466;19.004;2022-09-09T10:51:13;99661.56;;;26.16;52.50
59443;BME280;45247;47.466;19.004;2022-09-09T10:53:52;99670.34;;;25.90;49.23
59443;BME280;45247;47.466;19.004;2022-09-09T10:56:22;99672.56;;;25.80;48.46
59443;BME280;45247;47.466;19.004;2022-09-09T10:58:54;99664.00;;;26.04;53.19
59443;BME280;45247;47.466;19.004;2022-09-09T11:01:27;99652.84;;;26.14;47.67
59443;BME280;45247;47.466;19.004;2022-09-09T11:04:01;99653.69;;;26.14;48.20
59443;BME280;45247;47.466;19.004;2022-09-09T11:06:37;99659.28;;;25.85;49.34
59443;BME280;45247;47.466;19.004;2022-09-09T11:09:10;99656.75;;;26.05;51.37
59443;BME280;45247;47.466;19.004;2022-09-09T11:11:48;99656.31;;;26.08;50.61
59443;BME280;45247;47.466;19.004;2022-09-09T11:14:22;99655.75;;;26.12;49.30
59443;BME280;45247;47.466;19.004;2022-09-09T11:17:01;99647.59;;;26.06;46.96
59443;BME280;45247;47.466;19.004;2022-09-09T11:19:34;99648.31;;;26.21;49.47
59443;BME280;45247;47.466;19.004;2022-09-09T11:22:07;99657.22;;;26.15;50.29
59443;BME280;45247;47.466;19.004;2022-09-09T11:24:44;99657.06;;;25.95;54.41
59443;BME280;45247;47.466;19.004;2022-09-09T11:27:19;99650.13;;;26.14;54.65
59443;BME280;45247;47.466;19.004;2022-09-09T11:33:03;99656.66;;;26.26;54.71
59443;BME280;45247;47.466;19.004;2022-09-09T11:35:47;99657.31;;;26.00;52.42
59443;BME280;45247;47.466;19.004;2022-09-09T11:38:26;99654.94;;;25.90;59.37
59443;BME280;45247;47.466;19.004;2022-09-09T11:40:56;99660.56;;;25.89;55.60
59443;BME280;45247;47.466;19.004;2022-09-09T11:43:29;99645.19;;;25.89;54.14
59443;BME280;45247;47.466;19.004;2022-09-09T11:46:01;99640.63;;;25.68;58.18
59443;BME280;45247;47.466;19.004;2022-09-09T11:48:35;99644.97;;;25.91;60.04
59443;BME280;45247;47.466;19.004;2022-09-09T11:51:07;99651.25;;;25.91;61.02
59443;BME280;45247;47.466;19.004;2022-09-09T11:53:49;99643.22;;;26.05;61.21
59443;BME280;45247;47.466;19.004;2022-09-09T11:56:27;99653.72;;;26.21;59.38
59443;BME280;45247;47.466;19.004;2022-09-09T11:58:59;99641.78;;;26.09;61.86
59443;BME280;45247;47.466;19.004;2022-09-09T12:01:37;99646.81;;;25.84;60.63
59443;BME280;45247;47.466;19.004;2022-09-09T12:04:16;99637.47;;;25.65;61.93
59443;BME280;45247;47.466;19.004;2022-09-09T12:06:52;99633.09;;;25.64;63.84
59443;BME280;45247;47.466;19.004;2022-09-09T12:09:29;99647.16;;;25.53;60.14
59443;BME280;45247;47.466;19.004;2022-09-09T12:12:23;99658.97;;;25.30;64.96
59443;BME280;45247;47.466;19.004;2022-09-09T12:15:01;99670.53;;;25.24;68.80
59443;BME280;45247;47.466;19.004;2022-09-09T12:17:31;99659.50;;;25.19;68.41
59443;BME280;45247;47.466;19.004;2022-09-09T12:20:02;99660.00;;;25.29;67.19
59443;BME280;45247;47.466;19.004;2022-09-09T12:25:33;99652.91;;;25.71;63.69
59443;BME280;45247;47.466;19.004;2022-09-09T12:28:11;99642.63;;;25.81;65.61
59443;BME280;45247;47.466;19.004;2022-09-09T12:30:53;99646.50;;;26.00;66.02
59443;BME280;45247;47.466;19.004;2022-09-09T12:33:24;99631.22;;;25.86;60.06
59443;BME280;45247;47.466;19.004;2022-09-09T12:35:55;99637.72;;;25.70;62.24
59443;BME280;45247;47.466;19.004;2022-09-09T12:38:32;99626.91;;;25.91;62.85
59443;BME280;45247;47.466;19.004;2022-09-09T12:41:03;99632.16;;;26.34;61.32
59443;BME280;45247;47.466;19.004;2022-09-09T12:43:32;99625.50;;;26.30;60.95
59443;BME280;45247;47.466;19.004;2022-09-09T12:46:03;99623.34;;;26.19;56.28
59443;BME280;45247;47.466;19.004;2022-09-09T12:48:36;99619.63;;;26.27;56.39
59443;BME280;45247;47.466;19.004;2022-09-09T12:51:17;99615.06;;;25.92;57.59
59443;BME280;45247;47.466;19.004;2022-09-09T12:53:48;99615.59;;;25.81;56.22
59443;BME280;45247;47.466;19.004;2022-09-09T12:56:21;99611.91;;;25.89;54.26
59443;BME280;45247;47.466;19.004;2022-09-09T12:58:51;99609.19;;;26.17;55.54
59443;BME280;45247;47.466;19.004;2022-09-09T13:01:22;99601.94;;;25.89;59.05
59443;BME280;45247;47.466;19.004;2022-09-09T13:03:51;99604.94;;;26.08;60.68
59443;BME280;45247;47.466;19.004;2022-09-09T13:06:22;99594.19;;;26.14;57.83
59443;BME280;45247;47.466;19.004;2022-09-09T13:08:57;99591.31;;;25.88;54.82
59443;BME280;45247;47.466;19.004;2022-09-09T13:11:30;99585.72;;;25.89;56.06
59443;BME280;45247;47.466;19.004;2022-09-09T13:14:01;99587.59;;;25.67;56.76
59443;BME280;45247;47.466;19.004;2022-09-09T13:16:32;99586.16;;;25.43;56.04
59443;BME280;45247;47.466;19.004;2022-09-09T13:19:09;99586.06;;;25.30;53.54